Strona główna
METAR-TAF:

METAR-TAF

Lotnisko :

Port lotniczy Bournemouth

Bournemouth, Anglia

Szerokość geograficzna: 50-47N, Długość geograficzna: 001-50W, wysokość: 11 m

METAR: brakujący

czas: 23:23 (22:23 UTC)

Prognoza

Raport powstał 29 godziny i 26 minut temu, godzina 16:57 UTC
Prognoza ważna od 03 godzina 18 UTC do 04 godzina 03 UTC
Wiatr 4 kt od zachodnio-południowy zachód
Widzialność 10 km lub więcej
Rozproszone chmury na wysokości 3500 ft
Prawdopodobieństwo 40% :
Przejściowo
od 03 godzina 21 UTC do 03 godzina 24 UTC
Widzialność: 8000 m
Prawdopodobieństwo 30%
od 04 godzina 00 UTC do 04 godzina 03 UTC
Widzialność: 4000 m
Przerywane chmury na wysokości 400 ft
zamglenie

TAF: EGHH 031657Z 0318/0403 24004KT 9999 SCT035 PROB40 TEMPO 0321/0324 8000 PROB30 0400/0403 4000 BR BKN004

Obserwacja i prognoza pogody dla ponad 4000 lotnisk (raport METAR i TAF).

Dostępne stacje oznaczono żółtymi i czerwonymi punktami na mapie.

Najedź kursorem aby zobaczyć nazwę stacji.

Kliknij aby zobaczyć obserwacje i prognozy pogody.

Aby zmienić mapę: kliknij na zielony przycisk z czarnym krzyżykiem, aby powiększyć; na zielony przycisk z myślnikiem, aby pomniejszyć; na zielone strzałki, aby przejść do map sąsiednich.


METAR-TAF: